메인 페이지
METAR-TAF:

METAR-TAF

공항 :

라과디아 공항

뉴욕 / 라가디아, 뉴욕, 미국

위도: 40-46-45N, 경도: 073-52-48W, 고도: 6m

현재 날씨관측

예보는 36분 전, 06:51시(UTC)에 발표되었습니다.
남동5kt
온도 12°C
습도 82%
기압 1012 hPa
시정: 16.1km
고도 10000ft 상공 구름 보통
고도 25000ft 상공 구름 많음

METAR: KLGA 210651Z 14005KT 10SM SCT100 BKN250 12/09 A2988 RMK AO2 SLP117 T01170094

시각: 03:27 (07:27 UTC)

예보

예보는 2 시간 1분 전, 05:26시(UTC)에 발표되었습니다.
예보 대상 시간: 21일 06시부터 22일 12시까지 (UTC)
남남동7kt
시정: 10km
고도 5000ft 상공 구름 보통
고도 7000ft 상공 구름 많음
고도 25000ft 상공 구름 많음
21일 1300시부터 (UTC)
남남동8kt
시정: 10km
고도 10000ft 상공 구름 많음
21일 1700시부터 (UTC)
남남동10kt
시정: 10km
고도 10000ft 상공 구름 보통
고도 25000ft 상공 구름 많음
22일 0200시부터 (UTC)
남동5kt
시정: 10km
고도 8000ft 상공 구름 많음
확률 30%
22일 06시부터 22일 12시까지 (UTC)
시정: 3.2km
고도 5000ft 상공 흐림
약한소나기

TAF: KLGA 210526Z 2106/2212 16007KT P6SM SCT050 BKN070 BKN250 FM211300 16008KT P6SM BKN100 FM211700 15010KT P6SM SCT100 BKN250 FM220200 14005KT P6SM BKN080 PROB30 2206/2212 2SM -SHRA OVC050

4,000개 이상의 공항 관측 자료 및 예보 (METAR 및 TAF 보고).

지도상에서 검색 가능한 기상관측소가 노란 점과 빨간 점으로 표시되어 있습니다.

기상관측소 명을 보려면 표시 위로 마우스를 이동하세요.

날씨 관측과 예보를 보려면 클릭하세요.

지도 변경 : 확대하려면 엑스 표시가 있는 녹색 버튼, 축소하려면 빼기 표시가 있는 녹색 버튼, 다음 페이지의 지도를 보려면 녹색 화살표를 클릭하세요.


METAR-TAF: